X  Chiuso Dati meteorologici dell'aviazione (METAR)        LGTS Thessaloniki Macedonia International
Temperatura
10°C Temperatura
10°C Punto di rugiada
100% Umidità



Vento
2 M/S
5 MPH
7 KM/O
4 KTS



90°
E
Condizioni attuali

Mostly Clear Prevalentemente limpido
Pressione 1014 (hPa) - 29.94 (inHg)
Visibilità 6 (miglio) - 10 (km)
Aeroporto
Codice-Aeroporto LGTS

Posizione: Thessaloniki Macedonia International
Distanza: 85 (km)

Metar:
METAR LGTS 032220Z 09004KT 9999 FEW015 10/10 Q1014 NOSIG

Ore: 04-03-2024 00:20 EET